Lawson, Missouri
Current Conditions -  °F | °C
As of 10:35 AM on Monday 24 Nov 2014 (Local Time) from KGPH Reporting Station
Overcast Overcast  
Wind Chill: -3°   Ceiling: 3000
Heat Index:   Visibility: 10mi
Dew Point: -3°   Wind: 14mph
Humidity: 70%   Direction: 290°WNW
Pressure: 29.73"   Gusts: 21mph
Location:  39.44°N, 94.2°W
Report Text: KGPH 241635Z AUTO 29012G18KT 10SM OVC030 02/M03 A2973 RMK AO2
Loading
Personal Weather Stations






























Interactive Weather Map New forecast layout! Learn more

10-Day Weather Forecast

Advertisements
Track Severe Weather on mobile